Forest City, Florida
Current Conditions -  °F | °C
As of 3:53 AM on Wednesday 28 Jan 2015 (Local Time) from KORL Reporting Station
Clear Clear  
Wind Chill: 50°   Ceiling: Unl
Heat Index: 50°   Visibility: 10mi
Dew Point: 37°   Wind: 7mph
Humidity: 61%   Direction: 360°N
Pressure: 30.09"   Gusts: NA
Location:  28.6636°N, 81.413°W
Report Text: KORL 280853Z AUTO 36006KT 10SM CLR 10/03 A3009 RMK AO2 SLP194 T01000028 53009
Loading
Personal Weather Stations






























Interactive Weather Map New forecast layout! Learn more

10-Day Weather Forecast

Advertisements
Track Severe Weather on mobile